createdAt,value
2023-03-06T00:01:01.066Z,36.74
2023-03-06T00:06:02.906Z,36.57
2023-03-06T00:11:04.805Z,36.32
2023-03-06T00:16:07.143Z,36.55
2023-03-06T00:21:09.227Z,35.97
2023-03-06T00:26:10.972Z,36.67
2023-03-06T00:31:14.912Z,37.26
2023-03-06T00:36:16.693Z,36.75
2023-03-06T00:41:19.072Z,36.92
2023-03-06T00:46:20.894Z,37.16
2023-03-06T00:51:22.933Z,36.69
2023-03-06T00:56:25.215Z,37.33
2023-03-06T01:01:27.037Z,37.12
2023-03-06T01:06:29.288Z,37.06
2023-03-06T01:11:31.164Z,36.85
2023-03-06T01:16:33.110Z,37.08
2023-03-06T01:21:34.801Z,36.97
2023-03-06T01:26:36.632Z,37.03
2023-03-06T01:31:38.549Z,38.14
2023-03-06T01:36:40.423Z,37.91
2023-03-06T01:41:42.243Z,39.81
2023-03-06T01:46:45.168Z,39.08
2023-03-06T01:51:54.484Z,39.68
2023-03-06T01:57:01.990Z,39.00
2023-03-06T02:02:08.591Z,39.36
2023-03-06T02:07:11.023Z,41.09
2023-03-06T02:12:16.993Z,40.13
2023-03-06T02:17:21.082Z,38.74
2023-03-06T02:22:29.891Z,38.42
2023-03-06T02:27:32.446Z,39.73
2023-03-06T02:32:34.394Z,39.73
2023-03-06T02:37:36.479Z,41.46
2023-03-06T02:42:46.181Z,39.78
2023-03-06T02:47:49.468Z,39.38
2023-03-06T02:52:51.182Z,39.19
2023-03-06T02:57:52.992Z,38.93
2023-03-06T03:02:56.081Z,38.21
2023-03-06T03:07:58.087Z,37.15
2023-03-06T03:12:59.871Z,37.65
2023-03-06T03:18:01.900Z,37.76
2023-03-06T03:23:03.700Z,37.49
2023-03-06T03:28:05.439Z,37.15
2023-03-06T03:33:07.390Z,37.45
2023-03-06T03:38:09.881Z,36.88
2023-03-06T03:43:12.354Z,37.96
2023-03-06T03:48:14.985Z,37.39
2023-03-06T03:53:16.996Z,37.27
2023-03-06T03:58:19.175Z,39.10
2023-03-06T04:03:21.583Z,40.03
2023-03-06T04:08:24.670Z,39.49
2023-03-06T04:13:27.041Z,40.21
2023-03-06T04:18:28.973Z,39.39
2023-03-06T04:23:34.884Z,38.28
2023-03-06T04:28:38.979Z,37.78
2023-03-06T04:33:41.112Z,38.36
2023-03-06T04:38:43.958Z,38.40
2023-03-06T04:43:46.279Z,39.35
2023-03-06T04:48:48.109Z,38.08
2023-03-06T04:53:50.201Z,38.06
2023-03-06T04:58:52.066Z,38.05
2023-03-06T05:03:53.878Z,38.54
2023-03-06T05:08:55.678Z,37.46
2023-03-06T05:13:57.477Z,38.36
2023-03-06T05:18:59.369Z,37.85
2023-03-06T05:24:01.300Z,39.46
2023-03-06T05:29:03.133Z,41.07
2023-03-06T05:34:05.017Z,40.63
2023-03-06T05:39:06.985Z,41.17
2023-03-06T05:44:08.903Z,39.70
2023-03-06T05:49:10.851Z,39.17
2023-03-06T05:54:12.752Z,38.16
2023-03-06T05:59:15.661Z,37.99
2023-03-06T06:04:17.502Z,37.60
2023-03-06T06:09:19.349Z,37.72
2023-03-06T06:14:21.996Z,38.33
2023-03-06T06:19:23.961Z,39.52
2023-03-06T06:24:26.734Z,39.00
2023-03-06T06:29:28.953Z,38.53
2023-03-06T06:34:31.953Z,38.89
2023-03-06T06:39:33.818Z,38.83
2023-03-06T06:44:36.910Z,37.51
2023-03-06T06:49:39.574Z,38.37
2023-03-06T06:54:41.323Z,38.37
2023-03-06T06:59:43.284Z,39.57
2023-03-06T07:05:02.032Z,39.29
2023-03-06T07:10:07.411Z,39.80
2023-03-06T07:15:12.022Z,39.67
2023-03-06T07:20:13.797Z,39.51
2023-03-06T07:25:15.697Z,39.40
2023-03-06T07:30:17.487Z,38.79
2023-03-06T07:35:29.446Z,38.21
2023-03-06T07:40:31.188Z,37.76
2023-03-06T07:45:33.483Z,38.35
2023-03-06T07:50:35.310Z,38.71
2023-03-06T07:55:40.427Z,39.63
2023-03-06T08:00:42.361Z,38.88
2023-03-06T08:05:44.860Z,38.36
2023-03-06T08:10:49.850Z,38.04
2023-03-06T08:15:51.678Z,40.31
2023-03-06T08:21:02.698Z,39.56
2023-03-06T08:26:11.167Z,38.98
2023-03-06T08:31:28.872Z,38.01
2023-03-06T08:36:30.999Z,42.36
2023-03-06T08:41:33.584Z,49.43
2023-03-06T08:46:36.215Z,54.46
2023-03-06T08:51:38.007Z,50.44
2023-03-06T08:56:39.869Z,49.80
2023-03-06T09:01:41.788Z,51.05
2023-03-06T09:06:44.161Z,47.11
2023-03-06T09:11:46.035Z,48.23
2023-03-06T09:16:47.948Z,53.57
2023-03-06T09:21:49.819Z,53.11
2023-03-06T09:26:51.834Z,45.76
2023-03-06T09:31:53.915Z,45.95
2023-03-06T09:36:57.597Z,53.95
2023-03-06T09:41:59.631Z,48.79
2023-03-06T09:47:22.704Z,42.34
2023-03-06T09:52:38.650Z,38.66
2023-03-06T09:57:52.237Z,42.69
2023-03-06T10:03:10.589Z,48.54
2023-03-06T10:08:23.918Z,50.90
2023-03-06T10:13:48.209Z,41.14
2023-03-06T10:18:51.050Z,44.92
2023-03-06T10:23:55.115Z,46.88
2023-03-06T10:28:59.679Z,52.91
2023-03-06T10:34:16.037Z,51.83
2023-03-06T10:39:21.023Z,48.51
2023-03-06T10:44:24.471Z,47.99
2023-03-06T10:49:37.840Z,41.06
2023-03-06T10:54:42.353Z,40.69
2023-03-06T10:59:58.181Z,48.47
2023-03-06T11:05:01.645Z,49.26
2023-03-06T11:10:19.866Z,46.99
2023-03-06T11:15:22.673Z,38.97
2023-03-06T11:20:52.043Z,44.59
2023-03-06T11:26:21.143Z,40.59
2023-03-06T11:31:28.836Z,41.91
2023-03-06T11:36:39.188Z,47.39
2023-03-06T11:41:54.171Z,41.17
2023-03-06T11:47:07.790Z,37.98
2023-03-06T11:52:40.319Z,41.40
2023-03-06T11:57:52.758Z,39.69
2023-03-06T12:03:16.633Z,41.11
2023-03-06T12:08:46.478Z,39.51
2023-03-06T12:13:56.779Z,35.04
2023-03-06T12:19:22.329Z,32.01
2023-03-06T12:24:55.313Z,29.52
2023-03-06T12:30:26.405Z,34.97
2023-03-06T12:35:42.531Z,39.61
2023-03-06T12:41:05.565Z,32.52
2023-03-06T12:46:22.532Z,34.70
2023-03-06T12:51:24.552Z,32.13
2023-03-06T12:56:28.377Z,32.70
2023-03-06T13:01:30.033Z,32.24
2023-03-06T13:06:44.946Z,38.08
2023-03-06T13:11:57.509Z,35.72
2023-03-06T13:17:24.066Z,33.13
2023-03-06T13:22:29.292Z,34.53
2023-03-06T13:27:53.375Z,35.18
2023-03-06T13:32:56.346Z,34.39
2023-03-06T13:37:59.572Z,34.73
2023-03-06T13:43:14.948Z,32.54
2023-03-06T13:48:44.855Z,29.45
2023-03-06T13:54:08.925Z,29.95
2023-03-06T13:59:35.751Z,29.39
2023-03-06T14:04:53.295Z,32.64
2023-03-06T14:10:18.491Z,30.08
2023-03-06T14:15:23.871Z,31.68
2023-03-06T14:20:35.324Z,30.52
2023-03-06T14:25:37.158Z,30.01
2023-03-06T14:30:49.346Z,30.13
2023-03-06T14:35:52.654Z,29.96
2023-03-06T14:40:55.633Z,30.69
2023-03-06T14:46:02.981Z,30.32
2023-03-06T14:51:05.836Z,28.20
2023-03-06T14:56:07.959Z,28.23
2023-03-06T15:01:13.114Z,26.65
2023-03-06T15:06:19.905Z,27.12
2023-03-06T15:11:21.674Z,26.88
2023-03-06T15:16:30.055Z,27.23
2023-03-06T15:21:38.026Z,26.00
2023-03-06T15:26:40.616Z,27.85
2023-03-06T15:31:44.603Z,29.53
2023-03-06T15:36:57.648Z,30.04
2023-03-06T15:42:15.548Z,28.54
2023-03-06T15:47:17.436Z,29.17
2023-03-06T15:52:23.523Z,28.52
2023-03-06T15:57:29.179Z,28.79
2023-03-06T16:02:31.129Z,29.27
2023-03-06T16:07:32.806Z,29.63
2023-03-06T16:12:34.529Z,27.69
2023-03-06T16:17:36.191Z,27.92
2023-03-06T16:22:37.908Z,28.97
2023-03-06T16:27:46.053Z,30.89
2023-03-06T16:32:47.931Z,28.30
2023-03-06T16:37:50.018Z,28.20
2023-03-06T16:42:54.013Z,25.53
2023-03-06T16:47:58.767Z,24.86
2023-03-06T16:53:01.255Z,26.34
2023-03-06T16:58:02.991Z,27.20
2023-03-06T17:03:04.785Z,27.10
2023-03-06T17:08:06.616Z,26.11
2023-03-06T17:13:08.721Z,25.98
2023-03-06T17:18:10.482Z,24.58
2023-03-06T17:23:12.294Z,26.63
2023-03-06T17:28:14.348Z,24.17
2023-03-06T17:33:16.054Z,24.71
2023-03-06T17:38:17.779Z,24.07
2023-03-06T17:43:20.214Z,24.25
2023-03-06T17:48:21.960Z,24.34
2023-03-06T17:53:23.973Z,26.22
2023-03-06T17:58:27.089Z,28.50
2023-03-06T18:03:28.954Z,26.49
2023-03-06T18:08:32.175Z,28.73
2023-03-06T18:13:36.589Z,27.61
2023-03-06T18:18:38.805Z,26.18
2023-03-06T18:23:41.245Z,26.28
2023-03-06T18:28:46.139Z,26.95
2023-03-06T18:33:49.104Z,27.14
2023-03-06T18:38:51.508Z,27.35
2023-03-06T18:43:58.414Z,28.32
2023-03-06T18:49:00.312Z,28.07
2023-03-06T18:54:03.975Z,27.84
2023-03-06T18:59:06.852Z,28.29
2023-03-06T19:04:08.826Z,26.95
2023-03-06T19:09:11.390Z,27.70
2023-03-06T19:14:16.298Z,27.53
2023-03-06T19:19:18.014Z,27.20
2023-03-06T19:24:19.773Z,27.62
2023-03-06T19:29:21.554Z,28.21
2023-03-06T19:34:23.452Z,29.51
2023-03-06T19:39:25.703Z,28.56
2023-03-06T19:44:27.606Z,28.25
2023-03-06T19:49:29.322Z,28.72
2023-03-06T19:54:32.625Z,28.92
2023-03-06T19:59:34.495Z,28.38
2023-03-06T20:04:36.660Z,28.90
2023-03-06T20:09:38.622Z,28.60
2023-03-06T20:14:41.008Z,29.36
2023-03-06T20:19:42.840Z,29.40
2023-03-06T20:24:45.175Z,30.99
2023-03-06T20:29:46.923Z,30.77
2023-03-06T20:34:48.796Z,31.91
2023-03-06T20:39:51.521Z,32.19
2023-03-06T20:44:53.303Z,30.14
2023-03-06T20:49:55.119Z,29.76
2023-03-06T20:54:57.107Z,30.18
2023-03-06T20:59:58.822Z,30.83
2023-03-06T21:05:00.841Z,29.64
2023-03-06T21:10:02.780Z,30.99
2023-03-06T21:15:05.176Z,32.68
2023-03-06T21:20:07.388Z,31.13
2023-03-06T21:25:09.137Z,33.90
2023-03-06T21:30:11.459Z,31.60
2023-03-06T21:35:13.945Z,30.96
2023-03-06T21:40:15.745Z,31.18
2023-03-06T21:45:17.603Z,31.38
2023-03-06T21:50:19.373Z,32.72
2023-03-06T21:55:21.106Z,35.84
2023-03-06T22:00:25.932Z,37.65
2023-03-06T22:05:27.770Z,36.14
2023-03-06T22:10:29.555Z,36.63
2023-03-06T22:15:31.422Z,34.83
2023-03-06T22:20:33.238Z,34.80
2023-03-06T22:25:35.239Z,33.86
2023-03-06T22:30:37.129Z,32.96
2023-03-06T22:35:38.930Z,33.20
2023-03-06T22:40:40.720Z,34.89
2023-03-06T22:45:42.583Z,33.62
2023-03-06T22:50:44.484Z,32.97
2023-03-06T22:55:46.278Z,32.88
2023-03-06T23:00:48.168Z,32.79
2023-03-06T23:05:50.059Z,33.57
2023-03-06T23:10:51.873Z,32.90
2023-03-06T23:16:12.516Z,33.24
2023-03-06T23:21:34.555Z,32.92
2023-03-06T23:26:55.020Z,33.26
2023-03-06T23:31:56.816Z,34.46
2023-03-06T23:36:58.680Z,34.35
2023-03-06T23:42:01.437Z,34.04
2023-03-06T23:47:03.182Z,33.13
2023-03-06T23:52:05.035Z,32.85
2023-03-06T23:57:06.878Z,33.89
